Time;durP1;ratioP1;P1;durP2;ratioP2;P2;SDS_P1;SDS_P2;PMS_P1;PMS_P2;Temp;Humidity;BMP_temperature;BMP_pressure;BME280_temperature;BME280_humidity;BME280_pressure;Samples;Min_cycle;Max_cycle;Signal;HPM_P1;HPM_P2
2023/05/04 00:00:22;;;;;;;21.65;10.52;;;9.40;99.90;;;;;;5073343;28;20029;-56
2023/05/04 00:02:47;;;;;;;21.63;10.48;;;9.40;99.90;;;;;;5073458;28;20021;-56
2023/05/04 00:05:13;;;;;;;17.88;9.82;;;9.40;99.90;;;;;;5072873;28;20395;-52
2023/05/04 00:07:39;;;;;;;21.40;10.32;;;9.40;99.90;;;;;;5073096;28;20024;-51
2023/05/04 00:10:05;;;;;;;21.98;10.27;;;9.40;99.90;;;;;;5072907;28;20029;-50
2023/05/04 00:12:30;;;;;;;23.48;10.27;;;9.30;99.90;;;;;;5072708;28;20021;-53
2023/05/04 00:14:56;;;;;;;17.00;10.38;;;9.30;99.90;;;;;;5072804;28;20594;-51
2023/05/04 00:17:21;;;;;;;25.38;11.43;;;9.30;99.90;;;;;;5072946;28;20025;-55
2023/05/04 00:19:47;;;;;;;23.90;11.38;;;9.40;99.90;;;;;;5072857;28;20418;-49
2023/05/04 00:22:13;;;;;;;22.17;10.77;;;9.40;99.90;;;;;;5072906;28;20139;-46
2023/05/04 00:24:38;;;;;;;16.35;9.77;;;9.50;99.90;;;;;;5072620;28;20411;-48
2023/05/04 00:27:04;;;;;;;26.48;11.30;;;9.40;99.90;;;;;;5071933;28;20411;-54
2023/05/04 00:29:30;;;;;;;21.65;10.32;;;9.50;99.90;;;;;;5072713;28;20062;-54
2023/05/04 00:31:56;;;;;;;22.88;11.07;;;9.40;99.90;;;;;;5072484;28;20380;-50
2023/05/04 00:34:21;;;;;;;21.05;10.73;;;9.40;99.90;;;;;;5071419;28;20025;-50
2023/05/04 00:36:47;;;;;;;25.95;10.50;;;9.40;99.90;;;;;;5072652;28;20029;-50
2023/05/04 00:39:13;;;;;;;24.23;11.25;;;9.40;99.90;;;;;;5072590;28;20085;-50
2023/05/04 00:41:39;;;;;;;26.25;11.82;;;9.30;99.90;;;;;;5071109;28;20376;-51
2023/05/04 00:44:05;;;;;;;23.63;11.63;;;9.40;99.90;;;;;;5072068;28;20040;-51
2023/05/04 00:46:31;;;;;;;28.73;10.93;;;9.40;99.90;;;;;;5072457;28;20036;-49
2023/05/04 00:48:58;;;;;;;24.00;11.55;;;9.50;99.90;;;;;;5072312;28;20299;-47
2023/05/04 00:51:25;;;;;;;21.63;11.07;;;9.50;99.90;;;;;;5072443;28;20019;-49
2023/05/04 00:53:52;;;;;;;22.08;11.40;;;9.50;99.90;;;;;;5072390;28;20016;-50
2023/05/04 00:56:23;;;;;;;20.45;10.93;;;9.50;99.90;;;;;;5057193;28;20426;-49
2023/05/04 00:58:53;;;;;;;23.58;12.10;;;9.40;99.90;;;;;;5071206;28;20083;-48
2023/05/04 01:01:22;;;;;;;24.42;11.55;;;9.40;99.90;;;;;;5071948;28;20481;-49
2023/05/04 01:03:52;;;;;;;24.25;11.65;;;9.40;99.90;;;;;;5072279;28;20028;-53
2023/05/04 01:06:33;;;;;;;22.45;11.85;;;9.40;99.90;;;;;;5071961;28;20418;-55
2023/05/04 01:09:09;;;;;;;26.38;12.50;;;9.40;99.90;;;;;;5072214;28;20136;-53
2023/05/04 01:11:44;;;;;;;22.52;11.85;;;9.40;99.90;;;;;;5071739;28;20031;-54
2023/05/04 01:14:13;;;;;;;27.63;12.30;;;9.40;99.90;;;;;;5071913;28;20097;-59
2023/05/04 01:16:39;;;;;;;22.98;12.25;;;9.40;99.90;;;;;;5071770;28;20503;-50
2023/05/04 01:19:05;;;;;;;26.58;12.43;;;9.40;99.90;;;;;;5070740;28;20505;-53
2023/05/04 01:21:30;;;;;;;26.00;12.82;;;9.40;99.90;;;;;;5071767;28;20032;-53
2023/05/04 01:23:56;;;;;;;24.73;12.52;;;9.40;99.90;;;;;;5063980;28;20021;-55
2023/05/04 01:26:27;;;;;;;18.50;11.68;;;9.30;99.90;;;;;;5054350;28;20036;-56
2023/05/04 01:29:12;;;;;;;27.90;12.40;;;9.30;99.90;;;;;;5064140;28;20035;-55
2023/05/04 01:31:39;;;;;;;25.20;12.75;;;9.20;99.90;;;;;;5067152;28;20024;-48
2023/05/04 01:34:07;;;;;;;23.35;12.65;;;9.10;99.90;;;;;;5057430;28;20476;-50
2023/05/04 01:36:34;;;;;;;26.08;12.90;;;9.10;99.90;;;;;;5061133;28;20553;-49
2023/05/04 01:39:01;;;;;;;24.48;12.55;;;9.10;99.90;;;;;;5049972;28;20074;-50
2023/05/04 01:41:28;;;;;;;27.23;12.88;;;9.10;99.90;;;;;;5055351;28;20448;-51
2023/05/04 01:43:55;;;;;;;23.17;12.00;;;9.10;99.90;;;;;;5068045;28;20106;-51
2023/05/04 01:46:21;;;;;;;26.17;13.95;;;9.10;99.90;;;;;;5049716;28;20383;-51
2023/05/04 01:48:46;;;;;;;22.85;12.57;;;9.10;99.90;;;;;;5051166;28;20051;-51
2023/05/04 01:51:12;;;;;;;23.33;12.85;;;9.20;99.90;;;;;;5050811;28;20029;-54
2023/05/04 01:53:38;;;;;;;26.38;12.93;;;9.10;99.90;;;;;;5051233;28;20053;-52
2023/05/04 01:56:04;;;;;;;27.38;12.98;;;9.10;99.90;;;;;;5050878;28;20029;-49
2023/05/04 01:58:30;;;;;;;29.63;13.75;;;9.20;99.90;;;;;;5061390;28;20028;-58
2023/05/04 02:00:58;;;;;;;26.15;12.68;;;9.20;99.90;;;;;;5062063;28;20028;-55
2023/05/04 02:03:24;;;;;;;24.98;12.77;;;9.20;99.90;;;;;;5070660;28;20012;-57
2023/05/04 02:05:50;;;;;;;22.73;12.45;;;9.20;99.90;;;;;;5070793;28;20028;-55
2023/05/04 02:08:15;;;;;;;20.40;12.18;;;9.30;99.90;;;;;;5070691;28;20379;-48
2023/05/04 02:10:42;;;;;;;27.92;13.18;;;9.30;99.90;;;;;;5070809;28;20044;-51
2023/05/04 02:13:08;;;;;;;26.00;12.50;;;9.30;99.90;;;;;;5070528;28;20107;-48
2023/05/04 02:15:33;;;;;;;24.67;12.80;;;9.30;99.90;;;;;;5070718;28;20119;-51
2023/05/04 02:18:00;;;;;;;25.15;13.68;;;9.30;99.90;;;;;;5070513;28;20459;-51
2023/05/04 02:20:25;;;;;;;29.75;13.55;;;9.30;99.90;;;;;;5070497;28;20017;-48
2023/05/04 02:22:51;;;;;;;30.45;13.63;;;9.30;99.90;;;;;;5070645;28;20387;-54
2023/05/04 02:25:17;;;;;;;29.55;13.70;;;9.30;99.90;;;;;;5070268;28;20037;-47
2023/05/04 02:27:42;;;;;;;23.08;12.52;;;9.30;99.90;;;;;;5070145;28;20031;-47
2023/05/04 02:30:08;;;;;;;28.60;13.65;;;9.20;99.90;;;;;;5070462;28;20090;-51
2023/05/04 02:32:35;;;;;;;28.95;14.35;;;9.30;99.90;;;;;;5064533;28;20028;-53
2023/05/04 02:35:01;;;;;;;24.45;13.48;;;9.30;99.90;;;;;;5061189;28;20024;-48
2023/05/04 02:37:27;;;;;;;26.67;14.10;;;9.30;99.90;;;;;;5070288;28;20074;-48
2023/05/04 02:39:52;;;;;;;27.75;13.43;;;9.30;99.90;;;;;;5070334;28;20028;-46
2023/05/04 02:42:19;;;;;;;29.67;15.00;;;9.30;99.90;;;;;;5069806;28;20029;-47
2023/05/04 02:44:45;;;;;;;30.50;14.45;;;9.30;99.90;;;;;;5070357;28;20120;-46
2023/05/04 02:47:10;;;;;;;24.08;14.15;;;9.20;99.90;;;;;;5070435;28;20116;-47
2023/05/04 02:49:36;;;;;;;25.85;13.68;;;9.30;99.90;;;;;;5070167;28;20033;-48
2023/05/04 02:52:02;;;;;;;31.27;13.98;;;9.30;99.90;;;;;;5070327;28;20115;-47
2023/05/04 02:54:27;;;;;;;27.33;13.82;;;9.30;99.90;;;;;;5070186;28;20078;-53
2023/05/04 02:56:53;;;;;;;24.85;15.35;;;9.30;99.90;;;;;;5070987;28;20021;-52
2023/05/04 02:59:19;;;;;;;28.48;14.45;;;9.30;99.90;;;;;;5074262;28;20379;-50
2023/05/04 03:01:44;;;;;;;28.20;14.50;;;9.30;99.90;;;;;;5074452;28;20463;-47
2023/05/04 03:04:10;;;;;;;26.25;13.63;;;9.30;99.90;;;;;;5074257;28;20032;-46
2023/05/04 03:06:36;;;;;;;28.55;14.80;;;9.30;99.90;;;;;;5074104;28;20039;-49
2023/05/04 03:09:03;;;;;;;27.80;14.35;;;9.30;99.90;;;;;;5074304;28;20020;-47
2023/05/04 03:11:28;;;;;;;32.63;15.05;;;9.30;99.90;;;;;;5072526;28;20036;-49
2023/05/04 03:13:54;;;;;;;26.75;14.55;;;9.40;99.90;;;;;;5074102;28;20024;-47
2023/05/04 03:16:20;;;;;;;30.33;14.98;;;9.40;99.90;;;;;;5073859;28;20029;-46
2023/05/04 03:18:46;;;;;;;27.83;15.05;;;9.40;99.90;;;;;;5074183;28;20399;-48
2023/05/04 03:21:12;;;;;;;33.30;16.00;;;9.40;99.90;;;;;;5073644;28;20032;-46
2023/05/04 03:23:37;;;;;;;26.55;14.52;;;9.30;99.90;;;;;;5073301;28;20029;-48
2023/05/04 03:26:03;;;;;;;30.48;14.32;;;9.40;99.90;;;;;;5073704;28;20082;-50
2023/05/04 03:28:29;;;;;;;25.65;14.25;;;9.40;99.90;;;;;;5073579;28;20387;-49
2023/05/04 03:30:54;;;;;;;27.17;14.68;;;9.40;99.90;;;;;;5073768;28;20032;-49
2023/05/04 03:33:20;;;;;;;27.38;14.38;;;9.40;99.90;;;;;;5062771;28;20028;-47
2023/05/04 03:35:46;;;;;;;22.65;13.55;;;9.40;99.90;;;;;;5103171;28;20070;-48
2023/05/04 03:38:12;;;;;;;29.00;14.65;;;9.40;99.90;;;;;;5073782;28;20044;-46
2023/05/04 03:40:37;;;;;;;26.55;14.70;;;9.40;99.90;;;;;;5072071;28;20434;-46
2023/05/04 03:43:03;;;;;;;25.05;14.35;;;9.40;99.90;;;;;;5073209;28;20048;-47
2023/05/04 03:45:29;;;;;;;34.38;15.68;;;9.40;99.90;;;;;;5071921;28;20071;-47
2023/05/04 03:47:54;;;;;;;26.25;15.20;;;9.40;99.90;;;;;;5073115;28;20028;-48
2023/05/04 03:50:21;;;;;;;28.85;15.02;;;9.40;99.90;;;;;;5073222;28;20086;-47
2023/05/04 03:52:47;;;;;;;25.85;14.98;;;9.40;99.90;;;;;;5071848;28;20059;-50
2023/05/04 03:55:13;;;;;;;28.63;15.52;;;9.40;99.90;;;;;;5073144;28;20055;-46
2023/05/04 03:57:38;;;;;;;27.98;14.95;;;9.40;99.90;;;;;;5073153;28;20033;-46
2023/05/04 04:00:05;;;;;;;30.02;14.80;;;9.40;99.90;;;;;;5073490;28;20027;-46
2023/05/04 04:02:30;;;;;;;26.80;14.63;;;9.40;99.90;;;;;;5073221;28;20090;-48
2023/05/04 04:04:56;;;;;;;29.65;14.13;;;9.40;99.90;;;;;;5072917;28;20483;-50
2023/05/04 04:07:22;;;;;;;28.10;15.13;;;9.40;99.90;;;;;;5072526;28;20400;-58
2023/05/04 04:09:47;;;;;;;26.38;14.80;;;9.40;99.90;;;;;;5072826;28;20104;-55
2023/05/04 04:12:17;;;;;;;27.30;15.13;;;9.40;99.90;;;;;;5072957;28;20063;-49
2023/05/04 04:14:43;;;;;;;29.40;15.52;;;9.40;99.90;;;;;;5072834;28;20184;-58
2023/05/04 04:17:08;;;;;;;26.00;15.20;;;9.40;99.90;;;;;;5073022;28;20024;-50
2023/05/04 04:19:34;;;;;;;29.58;15.90;;;9.40;99.90;;;;;;5072706;28;20505;-49
2023/05/04 04:22:00;;;;;;;27.65;14.73;;;9.40;99.90;;;;;;5071462;28;20453;-49
2023/05/04 04:24:26;;;;;;;28.98;15.48;;;9.40;99.90;;;;;;5072667;28;20380;-48
2023/05/04 04:26:54;;;;;;;29.52;15.10;;;9.40;99.90;;;;;;5072770;28;20058;-48
2023/05/04 04:29:20;;;;;;;29.02;15.73;;;9.40;99.90;;;;;;5072855;28;20029;-50
2023/05/04 04:31:46;;;;;;;32.28;16.75;;;9.40;99.90;;;;;;5071436;28;20028;-48
2023/05/04 04:34:11;;;;;;;33.10;15.73;;;9.40;99.90;;;;;;5058447;28;20051;-50
2023/05/04 04:36:37;;;;;;;27.58;14.57;;;9.50;99.90;;;;;;5072475;28;20471;-47
2023/05/04 04:39:04;;;;;;;28.85;16.55;;;9.50;99.90;;;;;;5072334;28;20517;-48
2023/05/04 04:41:30;;;;;;;27.20;15.70;;;9.50;99.90;;;;;;5072521;28;20021;-49
2023/05/04 04:43:56;;;;;;;32.55;16.98;;;9.50;99.90;;;;;;5072104;28;20052;-48
2023/05/04 04:46:22;;;;;;;29.20;16.30;;;9.50;99.90;;;;;;5072420;28;20421;-49
2023/05/04 04:48:48;;;;;;;31.63;15.63;;;9.50;99.90;;;;;;5072135;28;20546;-49
2023/05/04 04:51:13;;;;;;;29.83;16.17;;;9.60;99.90;;;;;;5072009;28;20021;-48
2023/05/04 04:53:39;;;;;;;26.10;15.85;;;9.60;99.90;;;;;;5072331;28;20021;-49
2023/05/04 04:56:06;;;;;;;26.58;15.18;;;9.60;99.90;;;;;;5072226;28;20105;-47
2023/05/04 04:58:32;;;;;;;30.20;15.07;;;9.70;99.90;;;;;;5072250;28;20027;-50
2023/05/04 05:00:59;;;;;;;25.13;15.43;;;9.70;99.90;;;;;;5071730;28;20385;-57
2023/05/04 05:03:24;;;;;;;27.95;14.82;;;9.70;99.90;;;;;;5072089;28;20025;-51
2023/05/04 05:05:50;;;;;;;29.33;16.05;;;9.70;99.90;;;;;;5072024;28;20178;-56
2023/05/04 05:08:16;;;;;;;28.95;16.30;;;9.80;99.90;;;;;;5071551;28;20017;-49
2023/05/04 05:10:42;;;;;;;28.95;14.95;;;9.80;99.90;;;;;;5072140;28;20040;-57
2023/05/04 05:13:08;;;;;;;27.80;14.43;;;9.80;99.90;;;;;;5071384;28;20421;-57
2023/05/04 05:15:34;;;;;;;28.05;14.95;;;9.80;99.90;;;;;;5071792;28;20423;-49
2023/05/04 05:18:00;;;;;;;28.17;15.68;;;9.90;99.90;;;;;;5071368;28;20036;-50
2023/05/04 05:20:26;;;;;;;28.80;14.20;;;9.90;99.90;;;;;;5071187;28;20074;-49
2023/05/04 05:22:52;;;;;;;31.17;15.45;;;9.90;99.90;;;;;;5071477;28;20024;-48
2023/05/04 05:25:18;;;;;;;31.73;15.30;;;10.00;99.90;;;;;;5071595;28;20437;-55
2023/05/04 05:27:44;;;;;;;25.70;15.68;;;10.00;99.90;;;;;;5071215;28;20038;-53
2023/05/04 05:30:10;;;;;;;26.52;15.00;;;10.10;99.90;;;;;;5071432;28;20028;-52
2023/05/04 05:32:36;;;;;;;26.05;14.57;;;10.20;99.90;;;;;;5065404;28;20033;-57
2023/05/04 05:35:03;;;;;;;27.05;14.52;;;10.30;99.90;;;;;;5062524;28;20024;-52
2023/05/04 05:37:30;;;;;;;28.40;14.60;;;10.40;99.90;;;;;;5071145;28;20017;-55
2023/05/04 05:39:55;;;;;;;24.73;13.55;;;10.50;99.90;;;;;;5071654;28;20024;-54
2023/05/04 05:42:21;;;;;;;24.25;14.20;;;10.60;99.90;;;;;;5069776;28;20036;-53
2023/05/04 05:44:47;;;;;;;23.52;13.40;;;10.80;99.90;;;;;;5071130;28;20503;-52
2023/05/04 05:47:13;;;;;;;23.45;13.50;;;10.90;99.90;;;;;;5070169;28;20027;-49
2023/05/04 05:49:38;;;;;;;28.00;13.68;;;11.00;99.90;;;;;;5070908;28;20029;-54
2023/05/04 05:52:04;;;;;;;24.25;13.93;;;11.10;99.90;;;;;;5070017;28;20025;-58
2023/05/04 05:54:30;;;;;;;24.77;12.90;;;11.20;99.90;;;;;;5070635;28;20026;-52
2023/05/04 05:56:56;;;;;;;30.15;13.85;;;11.40;99.90;;;;;;5071161;28;20103;-54
2023/05/04 05:59:22;;;;;;;21.10;12.98;;;11.50;99.90;;;;;;5071048;28;20150;-49
2023/05/04 06:01:48;;;;;;;22.92;13.32;;;11.80;99.90;;;;;;5070894;28;20024;-50
2023/05/04 06:04:14;;;;;;;22.98;12.25;;;12.20;99.90;;;;;;5070997;28;20326;-51
2023/05/04 06:06:40;;;;;;;24.45;12.95;;;12.60;99.90;;;;;;5069561;28;20127;-54
2023/05/04 06:09:06;;;;;;;20.73;12.50;;;12.90;99.90;;;;;;5071080;28;20112;-49
2023/05/04 06:11:31;;;;;;;21.92;12.10;;;13.60;99.90;;;;;;5070891;28;20467;-49
2023/05/04 06:13:57;;;;;;;19.52;11.63;;;14.00;99.90;;;;;;5070950;28;20569;-48
2023/05/04 06:16:22;;;;;;;22.02;12.25;;;14.50;99.90;;;;;;5070856;28;20167;-52
2023/05/04 06:18:48;;;;;;;22.80;11.82;;;14.10;99.90;;;;;;5070738;28;20077;-52
2023/05/04 06:21:14;;;;;;;19.15;12.05;;;13.80;99.90;;;;;;5070204;28;20033;-48
2023/05/04 06:23:40;;;;;;;21.80;12.32;;;13.60;99.90;;;;;;5063952;28;20032;-53
2023/05/04 06:26:06;;;;;;;23.00;12.10;;;14.00;99.90;;;;;;5050507;28;20021;-51
2023/05/04 06:28:33;;;;;;;20.15;11.13;;;14.90;99.90;;;;;;5083033;28;20033;-50
2023/05/04 06:30:59;;;;;;;19.60;11.60;;;15.20;99.90;;;;;;5050661;28;20023;-50
2023/05/04 06:33:25;;;;;;;19.20;10.93;;;15.40;99.90;;;;;;5050600;28;20100;-55
2023/05/04 06:35:52;;;;;;;18.77;11.05;;;15.70;99.90;;;;;;5068268;28;20025;-58
2023/05/04 06:38:17;;;;;;;19.70;11.57;;;15.60;99.90;;;;;;5070783;28;20116;-59
2023/05/04 06:40:43;;;;;;;18.10;10.77;;;15.40;99.60;;;;;;5070390;28;20099;-54
2023/05/04 06:43:09;;;;;;;18.25;10.80;;;14.90;99.90;;;;;;5070400;28;20072;-51
2023/05/04 06:45:35;;;;;;;17.70;11.73;;;14.50;99.90;;;;;;5070498;28;20078;-51
2023/05/04 06:48:01;;;;;;;15.80;10.32;;;14.30;99.90;;;;;;5070617;28;20375;-49
2023/05/04 06:50:27;;;;;;;19.10;10.57;;;15.10;99.90;;;;;;5070389;28;20063;-47
2023/05/04 06:53:02;;;;;;;16.38;10.25;;;16.00;99.90;;;;;;5070585;28;20044;-48
2023/05/04 06:55:27;;;;;;;17.95;10.70;;;16.40;96.80;;;;;;5070283;28;20082;-47
2023/05/04 06:57:53;;;;;;;17.90;9.73;;;16.60;96.60;;;;;;5069258;28;20060;-49
2023/05/04 07:00:19;;;;;;;15.68;10.15;;;17.10;94.40;;;;;;5068577;28;20074;-54
2023/05/04 07:02:45;;;;;;;22.13;9.80;;;16.90;94.10;;;;;;5071098;28;20020;-46
2023/05/04 07:05:11;;;;;;;15.90;9.88;;;16.50;94.20;;;;;;5071525;28;20039;-48
2023/05/04 07:07:37;;;;;;;18.25;9.63;;;15.90;95.80;;;;;;5073724;28;20189;-46
2023/05/04 07:10:03;;;;;;;17.90;9.02;;;15.40;97.00;;;;;;5054642;28;20030;-52
2023/05/04 07:12:29;;;;;;;16.40;9.40;;;15.80;98.00;;;;;;5050678;28;20397;-49
2023/05/04 07:14:55;;;;;;;13.90;8.45;;;16.50;95.90;;;;;;5049911;28;20021;-47
2023/05/04 07:17:24;;;;;;;13.35;8.82;;;17.10;94.10;;;;;;5050071;28;20032;-48
2023/05/04 07:19:51;;;;;;;12.60;8.10;;;17.40;91.60;;;;;;5049935;28;20452;-48
2023/05/04 07:22:17;;;;;;;12.32;8.50;;;17.50;92.40;;;;;;5050369;28;20025;-47
2023/05/04 07:24:43;;;;;;;13.18;7.88;;;17.50;90.60;;;;;;5054465;28;20032;-47
2023/05/04 07:27:10;;;;;;;13.40;8.68;;;17.50;91.60;;;;;;5061558;28;20033;-45
2023/05/04 07:29:36;;;;;;;15.55;7.82;;;17.60;91.60;;;;;;5064027;28;20064;-44
2023/05/04 07:32:01;;;;;;;15.10;8.13;;;18.60;90.40;;;;;;5049702;28;20060;-47
2023/05/04 07:34:27;;;;;;;12.88;7.63;;;19.70;89.70;;;;;;5056279;28;20021;-44
2023/05/04 07:36:53;;;;;;;12.20;7.43;;;21.00;84.60;;;;;;5070084;28;20181;-47
2023/05/04 07:39:18;;;;;;;15.57;8.27;;;21.80;74.90;;;;;;5070014;28;20074;-52
2023/05/04 07:41:44;;;;;;;12.63;7.28;;;22.00;71.80;;;;;;5068081;28;20052;-51
2023/05/04 07:44:10;;;;;;;13.65;7.20;;;23.20;69.80;;;;;;5060775;28;20079;-59
2023/05/04 07:46:37;;;;;;;14.27;7.35;;;23.10;66.20;;;;;;5053119;28;20116;-46
2023/05/04 07:49:03;;;;;;;10.77;6.47;;;24.00;63.30;;;;;;5053409;28;20106;-49
2023/05/04 07:51:29;;;;;;;11.80;7.70;;;24.80;65.40;;;;;;5053092;28;20079;-45
2023/05/04 07:53:55;;;;;;;9.80;7.13;;;24.40;59.30;;;;;;5053466;28;20021;-45
2023/05/04 07:56:20;;;;;;;9.85;7.13;;;23.20;60.00;;;;;;5053368;28;20472;-44
2023/05/04 07:58:46;;;;;;;10.13;6.50;;;23.10;64.50;;;;;;5053858;28;20396;-44
2023/05/04 08:01:12;;;;;;;11.13;7.25;;;23.00;64.20;;;;;;5053816;28;20033;-45
2023/05/04 08:03:37;;;;;;;9.80;6.93;;;23.30;65.40;;;;;;5053134;28;20064;-48
2023/05/04 08:06:03;;;;;;;11.65;7.38;;;23.40;63.50;;;;;;5053817;28;20048;-43
2023/05/04 08:08:29;;;;;;;12.02;7.07;;;22.60;61.80;;;;;;5066534;28;20092;-49
2023/05/04 08:10:54;;;;;;;13.15;8.27;;;23.10;65.00;;;;;;5062759;28;20035;-44
2023/05/04 08:13:20;;;;;;;10.07;6.55;;;23.40;61.30;;;;;;5060877;28;20039;-45
2023/05/04 08:15:46;;;;;;;10.75;6.65;;;24.10;63.20;;;;;;5056624;28;20021;-44
2023/05/04 08:18:11;;;;;;;11.48;6.72;;;25.20;58.70;;;;;;5052813;28;20117;-44
2023/05/04 08:20:37;;;;;;;12.13;6.53;;;25.50;56.20;;;;;;5052748;28;20078;-44
2023/05/04 08:23:03;;;;;;;9.68;6.13;;;24.90;54.80;;;;;;5063583;28;20043;-44
2023/05/04 08:25:29;;;;;;;12.10;7.63;;;24.00;57.80;;;;;;5070518;28;20067;-47
2023/05/04 08:27:55;;;;;;;12.55;7.15;;;22.80;59.20;;;;;;5059277;28;20057;-48
2023/05/04 08:30:21;;;;;;;13.40;7.32;;;21.20;61.80;;;;;;5053720;28;20486;-43
2023/05/04 08:32:49;;;;;;;11.07;7.30;;;20.50;65.10;;;;;;5054619;28;20021;-45
2023/05/04 08:35:15;;;;;;;16.60;8.02;;;20.00;68.00;;;;;;5065472;28;20020;-46
2023/05/04 08:37:41;;;;;;;11.60;7.65;;;19.90;67.30;;;;;;5072464;28;20536;-45
2023/05/04 08:40:07;;;;;;;13.35;8.20;;;19.70;67.60;;;;;;5072570;28;20028;-49
2023/05/04 08:42:33;;;;;;;10.75;7.07;;;19.70;68.70;;;;;;5072222;28;20057;-44
2023/05/04 08:44:59;;;;;;;13.68;7.15;;;20.50;68.40;;;;;;5072448;28;20705;-47
2023/05/04 08:47:27;;;;;;;11.30;6.72;;;21.40;66.50;;;;;;5057644;28;20040;-44
2023/05/04 08:49:55;;;;;;;11.20;7.20;;;22.10;64.20;;;;;;5052543;28;20044;-45
2023/05/04 08:52:24;;;;;;;11.32;7.10;;;21.70;63.00;;;;;;5052397;28;20448;-44
2023/05/04 08:54:55;;;;;;;9.80;7.28;;;21.20;65.40;;;;;;5051225;28;20017;-48
2023/05/04 08:57:25;;;;;;;13.70;7.68;;;21.60;65.60;;;;;;5092025;28;20116;-49
2023/05/04 08:59:53;;;;;;;10.68;6.78;;;22.80;63.60;;;;;;5051829;28;20017;-44
2023/05/04 09:02:23;;;;;;;10.60;6.93;;;23.50;63.80;;;;;;5052310;28;20032;-44
2023/05/04 09:04:50;;;;;;;11.63;7.20;;;23.70;60.50;;;;;;5083329;28;20057;-44
2023/05/04 09:07:20;;;;;;;13.27;7.72;;;23.20;60.20;;;;;;5052222;28;20108;-44
2023/05/04 09:09:47;;;;;;;15.70;7.20;;;22.40;61.70;;;;;;5051811;28;20024;-48
2023/05/04 09:12:13;;;;;;;9.32;6.75;;;22.40;61.60;;;;;;5051481;28;20017;-43
2023/05/04 09:14:40;;;;;;;10.73;6.75;;;22.00;62.90;;;;;;5055473;28;20052;-44
2023/05/04 09:17:24;;;;;;;9.98;6.85;;;22.00;63.60;;;;;;5056241;28;20039;-46
2023/05/04 09:20:03;;;;;;;12.77;7.28;;;22.00;62.70;;;;;;5052297;28;20104;-48
2023/05/04 09:22:33;;;;;;;10.73;6.45;;;21.30;65.50;;;;;;5062321;28;20029;-44
2023/05/04 09:25:06;;;;;;;12.75;7.47;;;20.90;67.10;;;;;;5072025;28;20044;-51
2023/05/04 09:27:32;;;;;;;11.77;6.97;;;20.80;69.00;;;;;;5059586;28;20113;-45
2023/05/04 09:29:57;;;;;;;11.52;7.07;;;20.60;68.40;;;;;;5070433;28;20108;-61
2023/05/04 09:32:24;;;;;;;12.23;7.00;;;20.60;69.60;;;;;;5069214;28;20029;-60
2023/05/04 09:34:53;;;;;;;11.65;7.03;;;20.00;68.80;;;;;;5069357;28;20055;-59
2023/05/04 09:37:20;;;;;;;14.00;8.18;;;19.90;70.40;;;;;;5051249;28;20027;-60
2023/05/04 09:39:52;;;;;;;15.23;7.78;;;19.70;70.00;;;;;;5051438;28;20060;-59
2023/05/04 09:42:19;;;;;;;14.40;7.35;;;19.60;70.60;;;;;;5061443;28;20047;-58
2023/05/04 09:44:45;;;;;;;10.18;6.70;;;19.70;71.70;;;;;;5051196;28;20029;-58
2023/05/04 09:47:11;;;;;;;13.05;8.10;;;19.80;71.40;;;;;;5050555;28;20032;-59
2023/05/04 09:49:40;;;;;;;13.80;7.53;;;19.70;70.70;;;;;;5053029;28;20521;-58
2023/05/04 09:52:06;;;;;;;13.02;7.47;;;19.90;71.30;;;;;;5051188;28;20434;-57
2023/05/04 09:54:40;;;;;;;16.05;7.40;;;19.90;69.50;;;;;;5051220;28;20013;-58
2023/05/04 09:57:12;;;;;;;11.23;7.13;;;20.00;70.50;;;;;;5056650;28;20147;-53
2023/05/04 09:59:39;;;;;;;10.25;6.90;;;20.20;69.70;;;;;;5052355;28;20037;-53
2023/05/04 10:02:07;;;;;;;12.38;7.53;;;20.10;71.20;;;;;;5049878;28;20021;-57
2023/05/04 10:04:34;;;;;;;12.73;7.53;;;20.80;70.20;;;;;;5050454;28;20017;-58
2023/05/04 10:07:03;;;;;;;12.68;7.78;;;21.40;70.60;;;;;;5046534;28;20031;-55
2023/05/04 10:09:30;;;;;;;11.73;7.43;;;22.40;67.70;;;;;;5050801;28;20029;-58
2023/05/04 10:11:59;;;;;;;16.83;7.13;;;23.20;66.40;;;;;;5050941;28;20025;-59
2023/05/04 10:14:29;;;;;;;10.98;7.15;;;24.50;62.90;;;;;;5050919;28;20021;-58
2023/05/04 10:17:07;;;;;;;13.50;7.00;;;24.10;60.60;;;;;;5083282;28;20502;-59
2023/05/04 10:19:42;;;;;;;9.05;6.65;;;24.10;60.30;;;;;;5050882;28;20052;-59
2023/05/04 10:22:26;;;;;;;11.98;6.85;;;24.40;60.90;;;;;;5055079;28;20024;-61
2023/05/04 10:25:10;;;;;;;10.85;6.95;;;24.30;58.20;;;;;;5050591;28;20033;-58
2023/05/04 10:27:40;;;;;;;11.40;7.07;;;23.50;61.00;;;;;;5055955;28;20029;-57
2023/05/04 10:30:09;;;;;;;11.18;7.20;;;22.40;62.40;;;;;;5050666;28;20029;-58
2023/05/04 10:32:38;;;;;;;13.68;7.20;;;21.40;64.30;;;;;;5050723;28;20025;-58
2023/05/04 10:35:10;;;;;;;9.35;7.28;;;20.20;66.00;;;;;;5061869;28;20047;-56
2023/05/04 10:37:36;;;;;;;10.30;7.32;;;20.70;69.20;;;;;;5070483;28;20420;-58
2023/05/04 10:40:07;;;;;;;9.10;6.50;;;21.40;67.10;;;;;;5070535;28;20495;-58
2023/05/04 10:42:43;;;;;;;14.13;6.78;;;22.20;65.10;;;;;;5069575;28;20063;-57
2023/05/04 10:45:09;;;;;;;13.77;6.95;;;22.80;63.10;;;;;;5070437;28;20548;-56
2023/05/04 10:47:39;;;;;;;12.45;7.00;;;22.80;62.10;;;;;;5070468;28;20472;-57
2023/05/04 10:50:07;;;;;;;9.75;6.40;;;23.40;59.50;;;;;;5069760;28;20029;-54
2023/05/04 10:52:46;;;;;;;12.43;6.82;;;24.80;65.70;;;;;;5070458;28;20589;-58
2023/05/04 10:55:12;;;;;;;13.00;6.80;;;25.50;55.90;;;;;;5070360;28;20613;-57
2023/05/04 10:57:50;;;;;;;10.52;6.55;;;26.00;57.20;;;;;;5070187;28;20025;-57
2023/05/04 11:00:17;;;;;;;10.73;6.53;;;27.10;53.30;;;;;;5067327;28;20024;-46
2023/05/04 11:02:46;;;;;;;12.55;6.82;;;27.30;52.60;;;;;;5068204;28;20025;-47
2023/05/04 11:05:18;;;;;;;9.88;6.32;;;27.60;55.30;;;;;;5055524;28;20519;-45
2023/05/04 11:07:45;;;;;;;11.73;6.63;;;26.60;52.90;;;;;;5056247;28;20086;-46
2023/05/04 11:10:26;;;;;;;9.80;6.10;;;27.10;53.30;;;;;;5060892;28;20035;-45
2023/05/04 11:12:59;;;;;;;9.23;6.70;;;27.90;55.00;;;;;;5070043;28;20020;-45
2023/05/04 11:15:25;;;;;;;11.38;6.22;;;28.50;52.00;;;;;;5070661;28;20056;-43
2023/05/04 11:17:54;;;;;;;12.93;6.55;;;28.40;52.90;;;;;;5071222;28;20024;-43
2023/05/04 11:20:25;;;;;;;9.23;6.43;;;27.10;52.20;;;;;;5074346;28;20017;-44
2023/05/04 11:22:52;;;;;;;9.52;6.82;;;27.60;52.70;;;;;;5073965;28;20791;-43
2023/05/04 11:25:29;;;;;;;9.35;6.63;;;27.80;52.30;;;;;;5073758;28;20032;-48
2023/05/04 11:27:57;;;;;;;9.00;6.50;;;26.90;53.00;;;;;;5072633;28;20112;-45
2023/05/04 11:30:31;;;;;;;9.77;6.65;;;26.60;53.90;;;;;;5072831;28;20052;-50
2023/05/04 11:32:59;;;;;;;9.55;6.55;;;25.60;54.30;;;;;;5073736;28;20021;-48
2023/05/04 11:35:27;;;;;;;10.52;6.88;;;24.70;54.50;;;;;;5072898;28;20438;-46
2023/05/04 11:37:54;;;;;;;14.93;6.20;;;23.80;58.30;;;;;;5073626;28;20035;-51
2023/05/04 11:40:24;;;;;;;9.25;6.78;;;24.00;58.10;;;;;;5073931;28;20418;-50
2023/05/04 11:42:52;;;;;;;8.95;6.32;;;23.60;57.50;;;;;;5070020;28;20044;-43
2023/05/04 11:45:20;;;;;;;7.97;5.88;;;23.20;61.80;;;;;;5073866;28;20044;-41
2023/05/04 11:47:47;;;;;;;10.07;6.10;;;22.60;61.20;;;;;;5073415;28;20479;-46
2023/05/04 11:50:15;;;;;;;8.57;5.97;;;22.70;60.60;;;;;;5073400;28;20020;-46
2023/05/04 11:52:44;;;;;;;9.67;6.10;;;23.50;61.60;;;;;;5071272;28;20035;-41
2023/05/04 11:55:12;;;;;;;11.02;6.68;;;23.70;60.90;;;;;;5069753;28;20020;-47
2023/05/04 11:57:38;;;;;;;9.35;6.07;;;23.00;59.30;;;;;;5060577;28;20480;-41
2023/05/04 12:00:05;;;;;;;8.88;5.28;;;23.10;62.10;;;;;;5063809;28;20052;-41
2023/05/04 12:02:32;;;;;;;9.57;5.95;;;23.20;62.50;;;;;;5055874;28;20036;-40
2023/05/04 12:04:59;;;;;;;13.15;6.60;;;23.30;61.90;;;;;;5066351;28;20498;-44
2023/05/04 12:07:26;;;;;;;9.40;7.03;;;23.30;61.40;;;;;;5051942;28;20028;-48
2023/05/04 12:09:52;;;;;;;13.77;7.03;;;23.40;61.40;;;;;;5053271;28;20496;-53
2023/05/04 12:12:20;;;;;;;11.07;6.78;;;22.90;61.70;;;;;;5053188;28;20075;-55
2023/05/04 12:14:55;;;;;;;7.93;5.10;;;23.20;61.20;;;;;;5053207;28;20025;-53
2023/05/04 12:17:21;;;;;;;10.35;5.78;;;23.80;63.40;;;;;;5051735;28;20439;-47
2023/05/04 12:19:51;;;;;;;9.35;5.85;;;23.70;60.80;;;;;;5053058;28;20028;-47
2023/05/04 12:22:24;;;;;;;11.52;6.63;;;23.30;61.90;;;;;;5053118;28;20111;-53
2023/05/04 12:24:50;;;;;;;9.63;6.18;;;23.20;62.40;;;;;;5052948;28;20483;-42
2023/05/04 12:27:16;;;;;;;11.90;7.03;;;23.90;63.60;;;;;;5055068;28;20076;-43
2023/05/04 12:29:41;;;;;;;8.57;6.45;;;23.60;62.10;;;;;;5053189;28;20297;-44
2023/05/04 12:32:07;;;;;;;10.45;7.57;;;24.10;62.00;;;;;;5052932;28;20017;-58
2023/05/04 12:34:33;;;;;;;11.95;7.85;;;23.80;59.90;;;;;;5059926;28;20032;-45